Centenario Blu — 3FXD7 — position and weather

sailwx.info

Track history (hours):
 
Tides and Currents Weather Stations Pressure Air Temp Water Temp Dewpoint Dewpoint Depression Visibility Wind Speed Wind Dir Waves Ship Positions

Centenario Blu

Last reported at 2017-Jun-13 08:10 UTC. Time now 2017-Jun-25 22:41 UTC.
Position N 25°47' W 083°19'.
Warning: this ship's position is 12 days out of date.

Length 190 m; draft 6 m.

Type: Cargo ship. MMSI: 356832000.

Date/timePositionNaut miles runAvg speedWind from/ knotsBaromVisibWave heightAir tempDewpointWater temp
2017-Jun-13 08:10N 25°47' W 083°19'415.0
2017-Jun-13 07:54N 25°43' W 083°20'714.9
2017-Jun-13 07:25N 25°36' W 083°20'814.8
2017-Jun-13 06:54N 25°28' W 083°21'614.8
2017-Jun-13 06:30N 25°22' W 083°22'204 8.2
2017-Jun-12 05:34N 25°21' W 079°35'113.3
2017-Jun-12 05:30N 25°22' W 079°35'713.2
2017-Jun-12 05:01N 25°28' W 079°35'712.9
2017-Jun-12 04:30N 25°35' W 079°35'612.7
2017-Jun-12 04:01N 25°41' W 079°35'612.5
2017-Jun-12 03:30N 25°48' W 079°36'612.5
2017-Jun-12 03:00N 25°52' W 079°41'713.1
2017-Jun-12 02:31N 25°55' W 079°47'612.3
2017-Jun-12 02:01N 25°59' W 079°52'612.5
2017-Jun-12 01:30N 26°02' W 079°58'612.3
2017-Jun-12 01:01N 26°06' W 080°04'3 5.6
2017-Jun-12 00:30N 26°06' W 080°07'0 0.3
2017-Jun-11 23:58N 26°06' W 080°07'0 0.0
2017-Jun-11 23:25N 26°06' W 080°07'0 0.0
2017-Jun-11 22:58N 26°06' W 080°07'0 0.0
2017-Jun-11 22:28N 26°06' W 080°07'0 0.0
2017-Jun-11 21:58N 26°06' W 080°07'0 0.0
2017-Jun-11 21:28N 26°06' W 080°07'0 0.0
2017-Jun-11 20:58N 26°06' W 080°07'0 0.0
2017-Jun-11 20:28N 26°06' W 080°07'0 0.0
2017-Jun-11 19:58N 26°06' W 080°07'0 0.0
2017-Jun-11 19:28N 26°06' W 080°07'0 0.0
2017-Jun-11 18:58N 26°06' W 080°07'0 0.0
2017-Jun-11 18:28N 26°06' W 080°07'0 0.0
2017-Jun-11 17:58N 26°06' W 080°07'0 0.0
2017-Jun-11 17:28N 26°06' W 080°07'0 0.0
2017-Jun-11 16:58N 26°06' W 080°07'0 0.0
2017-Jun-11 16:28N 26°06' W 080°07'0 0.0
2017-Jun-11 15:58N 26°06' W 080°07'0 0.0
2017-Jun-11 15:28N 26°06' W 080°07'0 0.0
2017-Jun-11 14:58N 26°06' W 080°07'0 0.0
2017-Jun-11 13:58N 26°06' W 080°07'0 0.0
2017-Jun-11 13:28N 26°06' W 080°07'0 0.0
2017-Jun-11 12:58N 26°06' W 080°07'0 0.0
2017-Jun-11 12:28N 26°06' W 080°07'0 0.0
2017-Jun-11 11:58N 26°06' W 080°07'0 0.0
2017-Jun-11 11:28N 26°06' W 080°07'0 0.0
2017-Jun-11 10:58N 26°06' W 080°07'0 0.0
2017-Jun-11 10:28N 26°06' W 080°07'0 0.0
2017-Jun-11 09:58N 26°06' W 080°07'0 0.0
2017-Jun-11 09:28N 26°06' W 080°07'0 0.0
2017-Jun-11 08:58N 26°06' W 080°07'0 0.0
2017-Jun-11 08:28N 26°06' W 080°07'0 0.0
2017-Jun-11 08:00N 26°06' W 080°07'0 0.3
2017-Jun-11 07:30N 26°06' W 080°07'2 4.3
2017-Jun-11 07:00N 26°06' W 080°05'3 6.5
2017-Jun-11 06:30N 26°03' W 080°02'3 5.6
2017-Jun-11 06:00N 26°03' W 079°59'1 2.6
2017-Jun-11 05:30N 26°03' W 079°58'2 4.1
2017-Jun-11 05:00N 26°02' W 079°56'2 4.5
2017-Jun-11 04:30N 26°00' W 079°54'4 7.8
2017-Jun-11 04:00N 25°58' W 079°50'4 8.4
2017-Jun-11 03:30N 25°56' W 079°47'510.9
2017-Jun-11 03:00N 25°53' W 079°41'611.4
2017-Jun-11 02:30N 25°49' W 079°37'4 8.7
2017-Jun-11 02:00N 25°45' W 079°35'4 9.0
2017-Jun-11 01:30N 25°41' W 079°35'510.8
2017-Jun-11 01:00N 25°35' W 079°34'3 6.9
2017-Jun-11 00:31N 25°32' W 079°34'815.5
2017-Jun-11 00:01N 25°24' W 079°34'815.4
2017-Jun-10 23:30N 25°16' W 079°34'815.2
2017-Jun-10 23:00N 25°09' W 079°34'715.0
2017-Jun-10 22:30N 25°01' W 079°34'  
2017-Jun-08 04:41N 29°19' W 094°39'212.0
2017-Jun-08 04:30N 29°21' W 094°42'612.9
2017-Jun-08 04:00N 29°23' W 094°49'713.7
2017-Jun-08 03:30N 29°29' W 094°52'612.9
2017-Jun-08 03:00N 29°35' W 094°56'611.2
2017-Jun-08 02:30N 29°40' W 094°58'5 9.1
2017-Jun-08 02:00N 29°43' W 095°01'4 8.1
2017-Jun-08 01:30N 29°46' W 095°05'3 6.1
2017-Jun-08 01:00N 29°44' W 095°08'2 4.9
2017-Jun-08 00:30N 29°45' W 095°11'0 0.2
2017-Jun-07 23:58N 29°45' W 095°11'0 0.0
2017-Jun-07 23:28N 29°45' W 095°11'0 0.0
2017-Jun-07 22:58N 29°45' W 095°11'0 0.0
2017-Jun-07 22:29N 29°45' W 095°11'0 0.0
2017-Jun-07 21:58N 29°45' W 095°11'0 0.0
2017-Jun-07 21:28N 29°45' W 095°11'0 0.0
2017-Jun-07 20:58N 29°45' W 095°11'0 0.0
2017-Jun-07 20:28N 29°45' W 095°11'0 0.0
2017-Jun-07 19:58N 29°45' W 095°11'0 0.0
2017-Jun-07 19:28N 29°45' W 095°11'0 0.0
2017-Jun-07 18:58N 29°45' W 095°11'0 0.0
2017-Jun-07 18:28N 29°45' W 095°11'0 0.0
2017-Jun-07 17:58N 29°45' W 095°11'0 0.0
2017-Jun-07 17:28N 29°45' W 095°11'0 0.0
2017-Jun-07 16:58N 29°45' W 095°11'0 0.0
2017-Jun-07 16:28N 29°45' W 095°11'0 0.0
2017-Jun-07 15:58N 29°45' W 095°11'0 0.0
2017-Jun-07 15:28N 29°45' W 095°11'0 0.0
2017-Jun-07 14:58N 29°45' W 095°11'0 0.0
2017-Jun-07 13:58N 29°45' W 095°11'0 0.0
2017-Jun-07 13:28N 29°45' W 095°11'0 0.0
2017-Jun-07 12:58N 29°45' W 095°11'0 0.0
2017-Jun-07 12:28N 29°45' W 095°11'0 0.0
2017-Jun-07 11:58N 29°45' W 095°11'0 0.0
2017-Jun-07 11:28N 29°45' W 095°11'0 0.0
2017-Jun-07 10:58N 29°45' W 095°11'0 0.0
2017-Jun-07 10:28N 29°45' W 095°11'0 0.0
2017-Jun-07 09:58N 29°45' W 095°11'0 0.0
2017-Jun-07 09:28N 29°45' W 095°11'0 0.0
2017-Jun-07 08:58N 29°45' W 095°11'0 0.0
2017-Jun-07 08:28N 29°45' W 095°11'0 0.0
2017-Jun-07 07:58N 29°45' W 095°11'0 0.0
2017-Jun-07 07:28N 29°45' W 095°11'0 0.0
2017-Jun-07 06:58N 29°45' W 095°11'0 0.0
2017-Jun-07 06:22N 29°45' W 095°11'0 0.0
2017-Jun-07 05:58N 29°45' W 095°11'0 0.0
2017-Jun-07 05:28N 29°45' W 095°11'0 0.0
2017-Jun-07 04:58N 29°45' W 095°11'0 0.0
2017-Jun-07 04:28N 29°45' W 095°11'0 0.0
2017-Jun-07 03:58N 29°45' W 095°11'0 0.0
2017-Jun-07 03:28N 29°45' W 095°11'0 0.0
2017-Jun-07 02:58N 29°45' W 095°11'0 0.0
2017-Jun-07 02:28N 29°45' W 095°11'0 0.0
2017-Jun-07 01:58N 29°45' W 095°11'0 0.0
2017-Jun-07 01:28N 29°45' W 095°11'0 0.0
2017-Jun-07 00:58N 29°45' W 095°11'0 0.0
2017-Jun-07 00:28N 29°45' W 095°11'0 0.0
2017-Jun-06 23:58N 29°45' W 095°11'0 0.0
2017-Jun-06 23:28N 29°45' W 095°11'0 0.0
2017-Jun-06 22:58N 29°45' W 095°11'0 0.0
2017-Jun-06 22:28N 29°45' W 095°11'0 0.0
2017-Jun-06 21:58N 29°45' W 095°11'0 0.0
2017-Jun-06 21:28N 29°45' W 095°11'0 0.0
2017-Jun-06 20:58N 29°45' W 095°11'0 0.0
2017-Jun-06 20:28N 29°45' W 095°11'0 0.0
2017-Jun-06 19:58N 29°45' W 095°11'0 0.0
2017-Jun-06 19:28N 29°45' W 095°11'0 0.0
2017-Jun-06 18:58N 29°45' W 095°11'0 0.0
2017-Jun-06 18:28N 29°45' W 095°11'0 0.0
2017-Jun-06 17:58N 29°45' W 095°11'0 0.0
2017-Jun-06 17:28N 29°45' W 095°11'0 0.0
2017-Jun-06 16:58N 29°45' W 095°11'0 0.0
2017-Jun-06 16:28N 29°45' W 095°11'0 0.0
2017-Jun-06 15:58N 29°45' W 095°11'0 0.0
2017-Jun-06 15:28N 29°45' W 095°11'0 0.0
2017-Jun-06 14:58N 29°45' W 095°11'0 0.0
2017-Jun-06 14:28N 29°45' W 095°11'0 0.0
2017-Jun-06 13:28N 29°45' W 095°11'0 0.0
2017-Jun-06 12:58N 29°45' W 095°11'0 0.0
2017-Jun-06 12:28N 29°45' W 095°11'0 0.0
2017-Jun-06 11:58N 29°45' W 095°11'0 0.0
2017-Jun-06 11:28N 29°45' W 095°11'0 0.0
2017-Jun-06 10:58N 29°45' W 095°11'0 0.0
2017-Jun-06 10:28N 29°45' W 095°11'0 0.0
2017-Jun-06 09:55N 29°45' W 095°11'0 0.0
2017-Jun-06 09:28N 29°45' W 095°11'0 0.0
2017-Jun-06 08:58N 29°45' W 095°11'0 0.0
2017-Jun-06 08:28N 29°45' W 095°11'0 0.0
2017-Jun-06 07:58N 29°45' W 095°11'0 0.0
2017-Jun-06 07:28N 29°45' W 095°11'0 0.0
2017-Jun-06 06:58N 29°45' W 095°11'0 0.0
2017-Jun-06 06:28N 29°45' W 095°11'0 0.0
2017-Jun-06 05:58N 29°45' W 095°11'0 0.0
2017-Jun-06 05:28N 29°45' W 095°11'0 0.0
2017-Jun-06 04:58N 29°45' W 095°11'0 0.0
2017-Jun-06 04:28N 29°45' W 095°11'0 0.0
2017-Jun-06 03:58N 29°45' W 095°11'0 0.0
2017-Jun-06 03:28N 29°45' W 095°11'0 0.0
2017-Jun-06 02:58N 29°45' W 095°11'0 0.0
2017-Jun-06 02:28N 29°45' W 095°11'0 0.0
2017-Jun-06 01:58N 29°45' W 095°11'0 0.0
2017-Jun-06 01:28N 29°45' W 095°11'0 0.0
2017-Jun-06 00:58N 29°45' W 095°11'0 0.0
2017-Jun-06 00:28N 29°45' W 095°11'0 0.0
2017-Jun-05 23:58N 29°45' W 095°11'0 0.0
2017-Jun-05 23:28N 29°45' W 095°11'0 0.0
2017-Jun-05 22:58N 29°45' W 095°11'0 0.0
2017-Jun-05 22:28N 29°45' W 095°11'0 0.0
2017-Jun-05 21:58N 29°45' W 095°11'0 0.0
2017-Jun-05 21:28N 29°45' W 095°11'0 0.0
2017-Jun-05 20:58N 29°45' W 095°11'0 0.0
2017-Jun-05 20:28N 29°45' W 095°11'0 0.0
2017-Jun-05 19:58N 29°45' W 095°11'0 0.0
2017-Jun-05 19:25N 29°45' W 095°11'0 0.0
2017-Jun-05 18:49N 29°45' W 095°11'0 0.0
2017-Jun-05 18:28N 29°45' W 095°11'0 0.0
2017-Jun-05 17:58N 29°45' W 095°11'0 0.0
2017-Jun-05 17:28N 29°45' W 095°11'0 0.0
2017-Jun-05 16:58N 29°45' W 095°11'0 0.0
2017-Jun-05 16:28N 29°45' W 095°11'0 0.0
2017-Jun-05 15:58N 29°45' W 095°11'0 0.0
2017-Jun-05 15:28N 29°45' W 095°11'0 0.0
2017-Jun-05 14:58N 29°45' W 095°11'0 0.0
2017-Jun-05 13:58N 29°45' W 095°11'0 0.0
2017-Jun-05 13:28N 29°45' W 095°11'0 0.0
2017-Jun-05 12:58N 29°45' W 095°11'0 0.0
2017-Jun-05 12:28N 29°45' W 095°11'0 0.0
2017-Jun-05 11:58N 29°45' W 095°11'0 0.0
2017-Jun-05 11:28N 29°45' W 095°11'0 0.0
2017-Jun-05 10:58N 29°45' W 095°11'0 0.0
2017-Jun-05 10:25N 29°45' W 095°11'0 0.0
2017-Jun-05 09:58N 29°45' W 095°11'0 0.0
2017-Jun-05 09:28N 29°45' W 095°11'0 0.0
2017-Jun-05 08:58N 29°45' W 095°11'0 0.0
2017-Jun-05 08:28N 29°45' W 095°11'0 0.0
2017-Jun-05 07:58N 29°45' W 095°11'0 0.0
2017-Jun-05 07:28N 29°45' W 095°11'0 0.0
2017-Jun-05 06:58N 29°45' W 095°11'0 0.0
2017-Jun-05 06:22N 29°45' W 095°11'0 0.0
2017-Jun-05 05:58N 29°45' W 095°11'0 0.0
2017-Jun-05 05:28N 29°45' W 095°11'0 0.0
2017-Jun-05 04:58N 29°45' W 095°11'0 0.0
2017-Jun-05 04:28N 29°45' W 095°11'0 0.0
2017-Jun-05 03:58N 29°45' W 095°11'0 0.0
2017-Jun-05 03:25N 29°45' W 095°11'0 0.0
2017-Jun-05 02:58N 29°45' W 095°11'0 0.0
2017-Jun-05 02:28N 29°45' W 095°11'0 0.0
2017-Jun-05 01:58N 29°45' W 095°11'0 0.0
2017-Jun-05 01:28N 29°45' W 095°11'0 0.0
2017-Jun-05 00:58N 29°45' W 095°11'0 0.0
2017-Jun-05 00:28N 29°45' W 095°11'0 0.0
2017-Jun-04 23:58N 29°45' W 095°11'0 0.0
2017-Jun-04 23:28N 29°45' W 095°11'0 0.0
2017-Jun-04 22:58N 29°45' W 095°11'0 0.0
2017-Jun-04 22:28N 29°45' W 095°11'0 0.0
2017-Jun-04 21:55N 29°45' W 095°11'0 0.0
2017-Jun-04 21:28N 29°45' W 095°11'0 0.0
2017-Jun-04 20:58N 29°45' W 095°11'0 0.0
2017-Jun-04 20:28N 29°45' W 095°11'0 0.0
2017-Jun-04 19:58N 29°45' W 095°11'0 0.0
2017-Jun-04 19:28N 29°45' W 095°11'0 0.0
2017-Jun-04 18:58N 29°45' W 095°11'0 0.0
2017-Jun-04 18:28N 29°45' W 095°11'0 0.0
2017-Jun-04 17:58N 29°45' W 095°11'0 0.0
2017-Jun-04 17:28N 29°45' W 095°11'0 0.0
2017-Jun-04 16:58N 29°45' W 095°11'0 0.0
2017-Jun-04 16:28N 29°45' W 095°11'0 0.0
2017-Jun-04 15:58N 29°45' W 095°11'0 0.0
2017-Jun-04 15:28N 29°45' W 095°11'0 0.0
2017-Jun-04 14:58N 29°45' W 095°11'0 0.0
2017-Jun-04 14:28N 29°45' W 095°11'0 0.0
2017-Jun-04 13:25N 29°45' W 095°11'0 0.0
2017-Jun-04 12:58N 29°45' W 095°11'0 0.0
2017-Jun-04 12:28N 29°45' W 095°11'0 0.0
2017-Jun-04 11:58N 29°45' W 095°11'0 0.0
2017-Jun-04 11:28N 29°45' W 095°11'0 0.0
2017-Jun-04 10:58N 29°45' W 095°11'0 0.0
2017-Jun-04 10:28N 29°45' W 095°11'0 0.0
2017-Jun-04 09:58N 29°45' W 095°11'0 0.0
2017-Jun-04 09:28N 29°45' W 095°11'0 0.0
2017-Jun-04 08:55N 29°45' W 095°11'0 0.0
2017-Jun-04 08:28N 29°45' W 095°11'0 0.0
2017-Jun-04 07:58N 29°45' W 095°11'0 0.0
2017-Jun-04 07:28N 29°45' W 095°11'0 0.0
2017-Jun-04 06:58N 29°45' W 095°11'0 0.0
2017-Jun-04 06:28N 29°45' W 095°11'0 0.0
2017-Jun-04 05:58N 29°45' W 095°11'0 0.0
2017-Jun-04 05:28N 29°45' W 095°11'0 0.0
2017-Jun-04 04:58N 29°45' W 095°11'0 0.0
2017-Jun-04 04:28N 29°45' W 095°11'0 0.0
2017-Jun-04 03:58N 29°45' W 095°11'0 0.0
2017-Jun-04 03:28N 29°45' W 095°11'0 0.0
2017-Jun-04 02:58N 29°45' W 095°11'0 0.0
2017-Jun-04 02:28N 29°45' W 095°11'0 0.0
2017-Jun-04 01:58N 29°45' W 095°11'0 0.0
2017-Jun-04 01:28N 29°45' W 095°11'0 0.0
2017-Jun-04 00:58N 29°45' W 095°11'0 0.0
2017-Jun-04 00:28N 29°45' W 095°11'0 0.0
2017-Jun-03 23:58N 29°45' W 095°11'0 0.0
2017-Jun-03 23:28N 29°45' W 095°11'0 0.0
2017-Jun-03 22:58N 29°45' W 095°11'0 0.0
2017-Jun-03 22:28N 29°45' W 095°11'0 0.0
2017-Jun-03 21:58N 29°45' W 095°11'0 0.0
2017-Jun-03 21:28N 29°45' W 095°11'0 0.0
2017-Jun-03 20:58N 29°45' W 095°11'0 0.0
2017-Jun-03 20:28N 29°45' W 095°11'0 0.0
2017-Jun-03 19:58N 29°45' W 095°11'0 0.0
2017-Jun-03 19:28N 29°45' W 095°11'0 0.0
2017-Jun-03 18:58N 29°45' W 095°11'0 0.0
2017-Jun-03 18:28N 29°45' W 095°11'0 0.0
2017-Jun-03 17:58N 29°45' W 095°11'0 0.0
2017-Jun-03 17:28N 29°45' W 095°11'0 0.0
2017-Jun-03 16:58N 29°45' W 095°11'0 0.0
2017-Jun-03 16:28N 29°45' W 095°11'0 0.0
2017-Jun-03 15:55N 29°45' W 095°11'0 0.0
2017-Jun-03 15:28N 29°45' W 095°11'0 0.0
2017-Jun-03 14:58N 29°45' W 095°11'0 0.0
2017-Jun-03 13:55N 29°45' W 095°11'0 0.0
2017-Jun-03 13:28N 29°45' W 095°11'0 0.0
2017-Jun-03 12:58N 29°45' W 095°11'0 0.0
2017-Jun-03 12:28N 29°45' W 095°11'0 0.0
2017-Jun-03 11:58N 29°45' W 095°11'0 0.0
2017-Jun-03 11:28N 29°45' W 095°11'0 0.0
2017-Jun-03 10:58N 29°45' W 095°11'0 0.0
2017-Jun-03 10:28N 29°45' W 095°11'0 0.0
2017-Jun-03 09:58N 29°45' W 095°11'0 0.0
2017-Jun-03 09:28N 29°45' W 095°11'0 0.0
2017-Jun-03 08:58N 29°45' W 095°11'0 0.0
2017-Jun-03 08:28N 29°45' W 095°11'  
Track history (hours):
 
Tides and Currents Weather Stations Pressure Air Temp Water Temp Dewpoint Dewpoint Depression Visibility Wind Speed Wind Dir Waves Ship Positions

Centenario Blu

Last reported at 2017-Jun-13 08:10 UTC. Time now 2017-Jun-25 22:41 UTC.
Position N 25°47' W 083°19'.
Warning: this ship's position is 12 days out of date.

Length 190 m; draft 6 m.

Type: Cargo ship. MMSI: 356832000.

Date/timePositionNaut miles runAvg speedWind from/ knotsBaromVisibWave heightAir tempDewpointWater temp
2017-Jun-13 08:10N 25°47' W 083°19'415.0
2017-Jun-13 07:54N 25°43' W 083°20'714.9
2017-Jun-13 07:25N 25°36' W 083°20'814.8
2017-Jun-13 06:54N 25°28' W 083°21'614.8
2017-Jun-13 06:30N 25°22' W 083°22'204 8.2
2017-Jun-12 05:34N 25°21' W 079°35'113.3
2017-Jun-12 05:30N 25°22' W 079°35'713.2
2017-Jun-12 05:01N 25°28' W 079°35'712.9
2017-Jun-12 04:30N 25°35' W 079°35'612.7
2017-Jun-12 04:01N 25°41' W 079°35'612.5
2017-Jun-12 03:30N 25°48' W 079°36'612.5
2017-Jun-12 03:00N 25°52' W 079°41'713.1
2017-Jun-12 02:31N 25°55' W 079°47'612.3
2017-Jun-12 02:01N 25°59' W 079°52'612.5
2017-Jun-12 01:30N 26°02' W 079°58'612.3
2017-Jun-12 01:01N 26°06' W 080°04'3 5.6
2017-Jun-12 00:30N 26°06' W 080°07'0 0.3
2017-Jun-11 23:58N 26°06' W 080°07'0 0.0
2017-Jun-11 23:25N 26°06' W 080°07'0 0.0
2017-Jun-11 22:58N 26°06' W 080°07'0 0.0
2017-Jun-11 22:28N 26°06' W 080°07'0 0.0
2017-Jun-11 21:58N 26°06' W 080°07'0 0.0
2017-Jun-11 21:28N 26°06' W 080°07'0 0.0
2017-Jun-11 20:58N 26°06' W 080°07'0 0.0
2017-Jun-11 20:28N 26°06' W 080°07'0 0.0
2017-Jun-11 19:58N 26°06' W 080°07'0 0.0
2017-Jun-11 19:28N 26°06' W 080°07'0 0.0
2017-Jun-11 18:58N 26°06' W 080°07'0 0.0
2017-Jun-11 18:28N 26°06' W 080°07'0 0.0
2017-Jun-11 17:58N 26°06' W 080°07'0 0.0
2017-Jun-11 17:28N 26°06' W 080°07'0 0.0
2017-Jun-11 16:58N 26°06' W 080°07'0 0.0
2017-Jun-11 16:28N 26°06' W 080°07'0 0.0
2017-Jun-11 15:58N 26°06' W 080°07'0 0.0
2017-Jun-11 15:28N 26°06' W 080°07'0 0.0
2017-Jun-11 14:58N 26°06' W 080°07'0 0.0
2017-Jun-11 13:58N 26°06' W 080°07'0 0.0
2017-Jun-11 13:28N 26°06' W 080°07'0 0.0
2017-Jun-11 12:58N 26°06' W 080°07'0 0.0
2017-Jun-11 12:28N 26°06' W 080°07'0 0.0
2017-Jun-11 11:58N 26°06' W 080°07'0 0.0
2017-Jun-11 11:28N 26°06' W 080°07'0 0.0
2017-Jun-11 10:58N 26°06' W 080°07'0 0.0
2017-Jun-11 10:28N 26°06' W 080°07'0 0.0
2017-Jun-11 09:58N 26°06' W 080°07'0 0.0
2017-Jun-11 09:28N 26°06' W 080°07'0 0.0
2017-Jun-11 08:58N 26°06' W 080°07'0 0.0
2017-Jun-11 08:28N 26°06' W 080°07'0 0.0
2017-Jun-11 08:00N 26°06' W 080°07'0 0.3
2017-Jun-11 07:30N 26°06' W 080°07'2 4.3
2017-Jun-11 07:00N 26°06' W 080°05'3 6.5
2017-Jun-11 06:30N 26°03' W 080°02'3 5.6
2017-Jun-11 06:00N 26°03' W 079°59'1 2.6
2017-Jun-11 05:30N 26°03' W 079°58'2 4.1
2017-Jun-11 05:00N 26°02' W 079°56'2 4.5
2017-Jun-11 04:30N 26°00' W 079°54'4 7.8
2017-Jun-11 04:00N 25°58' W 079°50'4 8.4
2017-Jun-11 03:30N 25°56' W 079°47'510.9
2017-Jun-11 03:00N 25°53' W 079°41'611.4
2017-Jun-11 02:30N 25°49' W 079°37'4 8.7
2017-Jun-11 02:00N 25°45' W 079°35'4 9.0
2017-Jun-11 01:30N 25°41' W 079°35'510.8
2017-Jun-11 01:00N 25°35' W 079°34'3 6.9
2017-Jun-11 00:31N 25°32' W 079°34'815.5
2017-Jun-11 00:01N 25°24' W 079°34'815.4
2017-Jun-10 23:30N 25°16' W 079°34'815.2
2017-Jun-10 23:00N 25°09' W 079°34'715.0
2017-Jun-10 22:30N 25°01' W 079°34'  
2017-Jun-08 04:41N 29°19' W 094°39'212.0
2017-Jun-08 04:30N 29°21' W 094°42'612.9
2017-Jun-08 04:00N 29°23' W 094°49'713.7
2017-Jun-08 03:30N 29°29' W 094°52'612.9
2017-Jun-08 03:00N 29°35' W 094°56'611.2
2017-Jun-08 02:30N 29°40' W 094°58'5 9.1
2017-Jun-08 02:00N 29°43' W 095°01'4 8.1
2017-Jun-08 01:30N 29°46' W 095°05'3 6.1
2017-Jun-08 01:00N 29°44' W 095°08'2 4.9
2017-Jun-08 00:30N 29°45' W 095°11'0 0.2
2017-Jun-07 23:58N 29°45' W 095°11'0 0.0
2017-Jun-07 23:28N 29°45' W 095°11'0 0.0
2017-Jun-07 22:58N 29°45' W 095°11'0 0.0
2017-Jun-07 22:29N 29°45' W 095°11'0 0.0
2017-Jun-07 21:58N 29°45' W 095°11'0 0.0
2017-Jun-07 21:28N 29°45' W 095°11'0 0.0
2017-Jun-07 20:58N 29°45' W 095°11'0 0.0
2017-Jun-07 20:28N 29°45' W 095°11'0 0.0
2017-Jun-07 19:58N 29°45' W 095°11'0 0.0
2017-Jun-07 19:28N 29°45' W 095°11'0 0.0
2017-Jun-07 18:58N 29°45' W 095°11'0 0.0
2017-Jun-07 18:28N 29°45' W 095°11'0 0.0
2017-Jun-07 17:58N 29°45' W 095°11'0 0.0
2017-Jun-07 17:28N 29°45' W 095°11'0 0.0
2017-Jun-07 16:58N 29°45' W 095°11'0 0.0
2017-Jun-07 16:28N 29°45' W 095°11'0 0.0
2017-Jun-07 15:58N 29°45' W 095°11'0 0.0
2017-Jun-07 15:28N 29°45' W 095°11'0 0.0
2017-Jun-07 14:58N 29°45' W 095°11'0 0.0
2017-Jun-07 13:58N 29°45' W 095°11'0 0.0
2017-Jun-07 13:28N 29°45' W 095°11'0 0.0
2017-Jun-07 12:58N 29°45' W 095°11'0 0.0
2017-Jun-07 12:28N 29°45' W 095°11'0 0.0
2017-Jun-07 11:58N 29°45' W 095°11'0 0.0
2017-Jun-07 11:28N 29°45' W 095°11'0 0.0
2017-Jun-07 10:58N 29°45' W 095°11'0 0.0
2017-Jun-07 10:28N 29°45' W 095°11'0 0.0
2017-Jun-07 09:58N 29°45' W 095°11'0 0.0
2017-Jun-07 09:28N 29°45' W 095°11'0 0.0
2017-Jun-07 08:58N 29°45' W 095°11'0 0.0
2017-Jun-07 08:28N 29°45' W 095°11'0 0.0
2017-Jun-07 07:58N 29°45' W 095°11'0 0.0
2017-Jun-07 07:28N 29°45' W 095°11'0 0.0
2017-Jun-07 06:58N 29°45' W 095°11'0 0.0
2017-Jun-07 06:22N 29°45' W 095°11'0 0.0
2017-Jun-07 05:58N 29°45' W 095°11'0 0.0
2017-Jun-07 05:28N 29°45' W 095°11'0 0.0
2017-Jun-07 04:58N 29°45' W 095°11'0 0.0
2017-Jun-07 04:28N 29°45' W 095°11'0 0.0
2017-Jun-07 03:58N 29°45' W 095°11'0 0.0
2017-Jun-07 03:28N 29°45' W 095°11'0 0.0
2017-Jun-07 02:58N 29°45' W 095°11'0 0.0
2017-Jun-07 02:28N 29°45' W 095°11'0 0.0
2017-Jun-07 01:58N 29°45' W 095°11'0 0.0
2017-Jun-07 01:28N 29°45' W 095°11'0 0.0
2017-Jun-07 00:58N 29°45' W 095°11'0 0.0
2017-Jun-07 00:28N 29°45' W 095°11'0 0.0
2017-Jun-06 23:58N 29°45' W 095°11'0 0.0
2017-Jun-06 23:28N 29°45' W 095°11'0 0.0
2017-Jun-06 22:58N 29°45' W 095°11'0 0.0
2017-Jun-06 22:28N 29°45' W 095°11'0 0.0
2017-Jun-06 21:58N 29°45' W 095°11'0 0.0
2017-Jun-06 21:28N 29°45' W 095°11'0 0.0
2017-Jun-06 20:58N 29°45' W 095°11'0 0.0
2017-Jun-06 20:28N 29°45' W 095°11'0 0.0
2017-Jun-06 19:58N 29°45' W 095°11'0 0.0
2017-Jun-06 19:28N 29°45' W 095°11'0 0.0
2017-Jun-06 18:58N 29°45' W 095°11'0 0.0
2017-Jun-06 18:28N 29°45' W 095°11'0 0.0
2017-Jun-06 17:58N 29°45' W 095°11'0 0.0
2017-Jun-06 17:28N 29°45' W 095°11'0 0.0
2017-Jun-06 16:58N 29°45' W 095°11'0 0.0
2017-Jun-06 16:28N 29°45' W 095°11'0 0.0
2017-Jun-06 15:58N 29°45' W 095°11'0 0.0
2017-Jun-06 15:28N 29°45' W 095°11'0 0.0
2017-Jun-06 14:58N 29°45' W 095°11'0 0.0
2017-Jun-06 14:28N 29°45' W 095°11'0 0.0
2017-Jun-06 13:28N 29°45' W 095°11'0 0.0
2017-Jun-06 12:58N 29°45' W 095°11'0 0.0
2017-Jun-06 12:28N 29°45' W 095°11'0 0.0
2017-Jun-06 11:58N 29°45' W 095°11'0 0.0
2017-Jun-06 11:28N 29°45' W 095°11'0 0.0
2017-Jun-06 10:58N 29°45' W 095°11'0 0.0
2017-Jun-06 10:28N 29°45' W 095°11'0 0.0
2017-Jun-06 09:55N 29°45' W 095°11'0 0.0
2017-Jun-06 09:28N 29°45' W 095°11'0 0.0
2017-Jun-06 08:58N 29°45' W 095°11'0 0.0
2017-Jun-06 08:28N 29°45' W 095°11'0 0.0
2017-Jun-06 07:58N 29°45' W 095°11'0 0.0
2017-Jun-06 07:28N 29°45' W 095°11'0 0.0
2017-Jun-06 06:58N 29°45' W 095°11'0 0.0
2017-Jun-06 06:28N 29°45' W 095°11'0 0.0
2017-Jun-06 05:58N 29°45' W 095°11'0 0.0
2017-Jun-06 05:28N 29°45' W 095°11'0 0.0
2017-Jun-06 04:58N 29°45' W 095°11'0 0.0
2017-Jun-06 04:28N 29°45' W 095°11'0 0.0
2017-Jun-06 03:58N 29°45' W 095°11'0 0.0
2017-Jun-06 03:28N 29°45' W 095°11'0 0.0
2017-Jun-06 02:58N 29°45' W 095°11'0 0.0
2017-Jun-06 02:28N 29°45' W 095°11'0 0.0
2017-Jun-06 01:58N 29°45' W 095°11'0 0.0
2017-Jun-06 01:28N 29°45' W 095°11'0 0.0
2017-Jun-06 00:58N 29°45' W 095°11'0 0.0
2017-Jun-06 00:28N 29°45' W 095°11'0 0.0
2017-Jun-05 23:58N 29°45' W 095°11'0 0.0
2017-Jun-05 23:28N 29°45' W 095°11'0 0.0
2017-Jun-05 22:58N 29°45' W 095°11'0 0.0
2017-Jun-05 22:28N 29°45' W 095°11'0 0.0
2017-Jun-05 21:58N 29°45' W 095°11'0 0.0
2017-Jun-05 21:28N 29°45' W 095°11'0 0.0
2017-Jun-05 20:58N 29°45' W 095°11'0 0.0
2017-Jun-05 20:28N 29°45' W 095°11'0 0.0
2017-Jun-05 19:58N 29°45' W 095°11'0 0.0
2017-Jun-05 19:25N 29°45' W 095°11'0 0.0
2017-Jun-05 18:49N 29°45' W 095°11'0 0.0
2017-Jun-05 18:28N 29°45' W 095°11'0 0.0
2017-Jun-05 17:58N 29°45' W 095°11'0 0.0
2017-Jun-05 17:28N 29°45' W 095°11'0 0.0
2017-Jun-05 16:58N 29°45' W 095°11'0 0.0
2017-Jun-05 16:28N 29°45' W 095°11'0 0.0
2017-Jun-05 15:58N 29°45' W 095°11'0 0.0
2017-Jun-05 15:28N 29°45' W 095°11'0 0.0
2017-Jun-05 14:58N 29°45' W 095°11'0 0.0
2017-Jun-05 13:58N 29°45' W 095°11'0 0.0
2017-Jun-05 13:28N 29°45' W 095°11'0 0.0
2017-Jun-05 12:58N 29°45' W 095°11'0 0.0
2017-Jun-05 12:28N 29°45' W 095°11'0 0.0
2017-Jun-05 11:58N 29°45' W 095°11'0 0.0
2017-Jun-05 11:28N 29°45' W 095°11'0 0.0
2017-Jun-05 10:58N 29°45' W 095°11'0 0.0
2017-Jun-05 10:25N 29°45' W 095°11'0 0.0
2017-Jun-05 09:58N 29°45' W 095°11'0 0.0
2017-Jun-05 09:28N 29°45' W 095°11'0 0.0
2017-Jun-05 08:58N 29°45' W 095°11'0 0.0
2017-Jun-05 08:28N 29°45' W 095°11'0 0.0
2017-Jun-05 07:58N 29°45' W 095°11'0 0.0
2017-Jun-05 07:28N 29°45' W 095°11'0 0.0
2017-Jun-05 06:58N 29°45' W 095°11'0 0.0
2017-Jun-05 06:22N 29°45' W 095°11'0 0.0
2017-Jun-05 05:58N 29°45' W 095°11'0 0.0
2017-Jun-05 05:28N 29°45' W 095°11'0 0.0
2017-Jun-05 04:58N 29°45' W 095°11'0 0.0
2017-Jun-05 04:28N 29°45' W 095°11'0 0.0
2017-Jun-05 03:58N 29°45' W 095°11'0 0.0
2017-Jun-05 03:25N 29°45' W 095°11'0 0.0
2017-Jun-05 02:58N 29°45' W 095°11'0 0.0
2017-Jun-05 02:28N 29°45' W 095°11'0 0.0
2017-Jun-05 01:58N 29°45' W 095°11'0 0.0
2017-Jun-05 01:28N 29°45' W 095°11'0 0.0
2017-Jun-05 00:58N 29°45' W 095°11'0 0.0
2017-Jun-05 00:28N 29°45' W 095°11'0 0.0
2017-Jun-04 23:58N 29°45' W 095°11'0 0.0
2017-Jun-04 23:28N 29°45' W 095°11'0 0.0
2017-Jun-04 22:58N 29°45' W 095°11'0 0.0
2017-Jun-04 22:28N 29°45' W 095°11'0 0.0
2017-Jun-04 21:55N 29°45' W 095°11'0 0.0
2017-Jun-04 21:28N 29°45' W 095°11'0 0.0
2017-Jun-04 20:58N 29°45' W 095°11'0 0.0
2017-Jun-04 20:28N 29°45' W 095°11'0 0.0
2017-Jun-04 19:58N 29°45' W 095°11'0 0.0
2017-Jun-04 19:28N 29°45' W 095°11'0 0.0
2017-Jun-04 18:58N 29°45' W 095°11'0 0.0
2017-Jun-04 18:28N 29°45' W 095°11'0 0.0
2017-Jun-04 17:58N 29°45' W 095°11'0 0.0
2017-Jun-04 17:28N 29°45' W 095°11'0 0.0
2017-Jun-04 16:58N 29°45' W 095°11'0 0.0
2017-Jun-04 16:28N 29°45' W 095°11'0 0.0
2017-Jun-04 15:58N 29°45' W 095°11'0 0.0
2017-Jun-04 15:28N 29°45' W 095°11'0 0.0
2017-Jun-04 14:58N 29°45' W 095°11'0 0.0
2017-Jun-04 14:28N 29°45' W 095°11'0 0.0
2017-Jun-04 13:25N 29°45' W 095°11'0 0.0
2017-Jun-04 12:58N 29°45' W 095°11'0 0.0
2017-Jun-04 12:28N 29°45' W 095°11'0 0.0
2017-Jun-04 11:58N 29°45' W 095°11'0 0.0
2017-Jun-04 11:28N 29°45' W 095°11'0 0.0
2017-Jun-04 10:58N 29°45' W 095°11'0 0.0
2017-Jun-04 10:28N 29°45' W 095°11'0 0.0
2017-Jun-04 09:58N 29°45' W 095°11'0 0.0
2017-Jun-04 09:28N 29°45' W 095°11'0 0.0
2017-Jun-04 08:55N 29°45' W 095°11'0 0.0
2017-Jun-04 08:28N 29°45' W 095°11'0 0.0
2017-Jun-04 07:58N 29°45' W 095°11'0 0.0
2017-Jun-04 07:28N 29°45' W 095°11'0 0.0
2017-Jun-04 06:58N 29°45' W 095°11'0 0.0
2017-Jun-04 06:28N 29°45' W 095°11'0 0.0
2017-Jun-04 05:58N 29°45' W 095°11'0 0.0
2017-Jun-04 05:28N 29°45' W 095°11'0 0.0
2017-Jun-04 04:58N 29°45' W 095°11'0 0.0
2017-Jun-04 04:28N 29°45' W 095°11'0 0.0
2017-Jun-04 03:58N 29°45' W 095°11'0 0.0
2017-Jun-04 03:28N 29°45' W 095°11'0 0.0
2017-Jun-04 02:58N 29°45' W 095°11'0 0.0
2017-Jun-04 02:28N 29°45' W 095°11'0 0.0
2017-Jun-04 01:58N 29°45' W 095°11'0 0.0
2017-Jun-04 01:28N 29°45' W 095°11'0 0.0
2017-Jun-04 00:58N 29°45' W 095°11'0 0.0
2017-Jun-04 00:28N 29°45' W 095°11'0 0.0
2017-Jun-03 23:58N 29°45' W 095°11'0 0.0
2017-Jun-03 23:28N 29°45' W 095°11'0 0.0
2017-Jun-03 22:58N 29°45' W 095°11'0 0.0
2017-Jun-03 22:28N 29°45' W 095°11'0 0.0
2017-Jun-03 21:58N 29°45' W 095°11'0 0.0
2017-Jun-03 21:28N 29°45' W 095°11'0 0.0
2017-Jun-03 20:58N 29°45' W 095°11'0 0.0
2017-Jun-03 20:28N 29°45' W 095°11'0 0.0
2017-Jun-03 19:58N 29°45' W 095°11'0 0.0
2017-Jun-03 19:28N 29°45' W 095°11'0 0.0
2017-Jun-03 18:58N 29°45' W 095°11'0 0.0
2017-Jun-03 18:28N 29°45' W 095°11'0 0.0
2017-Jun-03 17:58N 29°45' W 095°11'0 0.0
2017-Jun-03 17:28N 29°45' W 095°11'0 0.0
2017-Jun-03 16:58N 29°45' W 095°11'0 0.0
2017-Jun-03 16:28N 29°45' W 095°11'0 0.0
2017-Jun-03 15:55N 29°45' W 095°11'0 0.0
2017-Jun-03 15:28N 29°45' W 095°11'0 0.0
2017-Jun-03 14:58N 29°45' W 095°11'0 0.0
2017-Jun-03 13:55N 29°45' W 095°11'0 0.0
2017-Jun-03 13:28N 29°45' W 095°11'0 0.0
2017-Jun-03 12:58N 29°45' W 095°11'0 0.0
2017-Jun-03 12:28N 29°45' W 095°11'0 0.0
2017-Jun-03 11:58N 29°45' W 095°11'0 0.0
2017-Jun-03 11:28N 29°45' W 095°11'0 0.0
2017-Jun-03 10:58N 29°45' W 095°11'0 0.0
2017-Jun-03 10:28N 29°45' W 095°11'0 0.0
2017-Jun-03 09:58N 29°45' W 095°11'0 0.0
2017-Jun-03 09:28N 29°45' W 095°11'0 0.0
2017-Jun-03 08:58N 29°45' W 095°11'0 0.0
2017-Jun-03 08:28N 29°45' W 095°11'  

Dump ship's entire track history